Terminal Aerodrome Forecast
Issued by NWS Corpus Christi, TX

Home | Current Version | Previous Version | Text Only | Print | Product List | Glossary On
Versions: 1 2 3 4 5 6 7 8 9 10 11 12 13 14 15 16 17 18 19
000
FTUS44 KCRP 031123
TAFVCT
TAF
KVCT 031123Z 0312/0412 13004KT 5SM BR VCSH BKN015
     FM031400 17008KT P6SM VCSH BKN025
     FM031900 16015G20KT P6SM VCTS SCT035CB BKN250
     FM032200 16015G20KT P6SM SCT040 BKN250
     FM040000 16011KT P6SM SCT020
     FM041100 16004KT 6SM BR SCT020=

USA.gov is the U.S. government's official web portal to all federal, state and local government web resources and services.